Time;durP1;ratioP1;P1;durP2;ratioP2;P2;SDS_P1;SDS_P2;PMS_P1;PMS_P2;Temp;Humidity;BMP_temperature;BMP_pressure;BME280_temperature;BME280_humidity;BME280_pressure;Samples;Min_cycle;Max_cycle;Signal;HPM_P1;HPM_P2
2024/01/16 00:00:33;;;;;;;14.63;8.10;;;;;;;0.36;78.53;97297.81;4904445;29;20067;-72
2024/01/16 00:02:59;;;;;;;9.05;7.50;;;;;;;0.42;79.53;97315.56;4901925;29;20392;-71
2024/01/16 00:05:24;;;;;;;9.75;7.43;;;;;;;0.38;78.98;97314.31;4906401;29;20099;-72
2024/01/16 00:07:49;;;;;;;12.02;7.75;;;;;;;0.40;79.15;97318.38;4887748;29;20108;-73
2024/01/16 00:10:15;;;;;;;10.25;7.57;;;;;;;0.48;79.61;97320.03;4896465;29;20039;-72
2024/01/16 00:12:44;;;;;;;9.30;7.43;;;;;;;0.49;78.97;97321.69;4906556;29;20184;-72
2024/01/16 00:15:10;;;;;;;10.93;7.85;;;;;;;0.29;78.75;97305.75;4896260;29;20048;-72
2024/01/16 00:17:35;;;;;;;11.00;7.88;;;;;;;0.35;79.24;97333.28;4907827;29;20032;-73
2024/01/16 00:20:01;;;;;;;11.77;8.82;;;;;;;0.08;78.66;97291.88;4900297;29;20113;-72
2024/01/16 00:22:27;;;;;;;11.40;8.10;;;;;;;0.38;79.41;97324.91;4880401;29;20186;-72
2024/01/16 00:24:53;;;;;;;12.25;8.13;;;;;;;0.29;78.87;97321.63;4895881;29;20070;-73
2024/01/16 00:27:18;;;;;;;10.88;8.18;;;;;;;0.38;79.98;97324.91;4908365;29;20029;-72
2024/01/16 00:29:44;;;;;;;11.55;7.70;;;;;;;0.28;79.16;97314.69;4920332;29;20100;-73
2024/01/16 00:32:09;;;;;;;11.77;8.90;;;;;;;0.38;79.32;97330.19;4904266;29;20107;-72
2024/01/16 00:34:35;;;;;;;15.38;8.13;;;;;;;0.32;79.89;97336.31;4865174;29;20110;-73
2024/01/16 00:37:01;;;;;;;13.27;8.73;;;;;;;0.19;79.63;97315.13;4920113;29;20119;-73
2024/01/16 00:39:27;;;;;;;12.43;8.55;;;;;;;0.32;78.96;97341.59;4893712;29;20041;-71
2024/01/16 00:41:55;;;;;;;12.35;8.68;;;;;;;0.21;79.44;97342.19;4902301;29;20064;-72
2024/01/16 00:44:21;;;;;;;9.45;8.27;;;;;;;0.27;79.23;97344.03;4892920;29;20231;-73
2024/01/16 00:46:47;;;;;;;12.95;8.70;;;;;;;0.26;79.28;97331.81;4916628;29;20385;-76
2024/01/16 00:49:12;;;;;;;10.35;8.77;;;;;;;0.32;80.14;97341.59;4905919;29;20064;-76
2024/01/16 00:51:38;;;;;;;13.90;8.20;;;;;;;0.26;80.06;97347.69;4899472;29;20080;-74
2024/01/16 00:54:06;;;;;;;12.13;8.95;;;;;;;0.26;79.96;97353.81;4906702;29;20409;-73
2024/01/16 00:56:33;;;;;;;10.13;8.30;;;;;;;0.22;79.97;97351.75;4868564;29;20039;-73
2024/01/16 00:58:58;;;;;;;12.40;8.93;;;;;;;0.29;79.47;97358.72;4895848;29;20070;-73
2024/01/16 01:01:24;;;;;;;10.88;8.40;;;;;;;0.27;79.06;97355.44;4899670;29;20072;-73
2024/01/16 01:03:51;;;;;;;10.57;9.15;;;;;;;0.26;79.02;97348.50;4899655;29;20127;-73
2024/01/16 01:06:16;;;;;;;11.57;8.68;;;;;;;0.25;79.17;97356.66;4904173;29;20036;-73
2024/01/16 01:08:42;;;;;;;11.73;8.93;;;;;;;0.13;79.18;97337.06;4899228;29;20536;-72
2024/01/16 01:11:07;;;;;;;11.77;8.07;;;;;;;0.05;79.81;97345.22;4897720;29;20088;-73
2024/01/16 01:13:33;;;;;;;13.30;8.73;;;;;;;0.23;80.15;97361.34;4897944;29;20044;-73
2024/01/16 01:15:58;;;;;;;12.25;8.20;;;;;;;0.23;79.80;97354.22;4898804;29;20512;-72
2024/01/16 01:18:24;;;;;;;12.90;8.38;;;;;;;0.25;79.51;97361.97;4866475;29;20028;-72
2024/01/16 01:20:49;;;;;;;13.35;8.07;;;;;;;0.28;79.39;97367.66;4898867;29;20444;-73
2024/01/16 01:23:14;;;;;;;10.95;7.90;;;;;;;0.25;79.52;97361.97;4913806;29;20036;-75
2024/01/16 01:25:40;;;;;;;13.07;8.32;;;;;;;0.34;79.79;97376.63;4890211;29;20024;-75
2024/01/16 01:28:05;;;;;;;12.32;8.57;;;;;;;0.20;79.78;97362.56;4899132;29;20116;-74
2024/01/16 01:30:32;;;;;;;10.88;9.30;;;;;;;0.34;79.61;97388.06;4898050;29;20055;-75
2024/01/16 01:32:57;;;;;;;12.80;8.90;;;;;;;0.25;79.34;97377.84;4898821;29;20099;-73
2024/01/16 01:35:23;;;;;;;12.95;8.68;;;;;;;0.28;79.95;97382.75;4888914;29;20036;-71
2024/01/16 01:37:49;;;;;;;10.05;8.70;;;;;;;0.25;79.54;97383.13;4897189;29;20039;-73
2024/01/16 01:40:15;;;;;;;10.93;8.60;;;;;;;0.23;80.36;97390.47;4912518;29;20021;-72
2024/01/16 01:42:43;;;;;;;12.65;8.10;;;;;;;0.22;79.69;97389.66;4898415;29;20033;-72
2024/01/16 01:45:10;;;;;;;9.98;8.30;;;;;;;0.16;79.55;97384.34;4889576;29;20044;-72
2024/01/16 01:47:36;;;;;;;13.23;9.13;;;;;;;0.12;80.05;97383.09;4896980;29;20068;-72
2024/01/16 01:50:03;;;;;;;12.82;8.63;;;;;;;0.14;80.18;97397.75;4898832;29;20039;-71
2024/01/16 01:52:30;;;;;;;11.80;8.23;;;;;;;0.12;79.71;97388.41;4900820;29;20051;-72
2024/01/16 01:54:56;;;;;;;11.40;8.10;;;;;;;-0.01;79.55;97382.03;4909462;29;20115;-73
2024/01/16 01:57:21;;;;;;;14.27;8.30;;;;;;;0.19;79.37;97415.72;4912894;29;20067;-73
2024/01/16 01:59:47;;;;;;;10.38;8.60;;;;;;;-0.06;79.62;97392.41;4886577;29;20043;-72
2024/01/16 02:02:12;;;;;;;11.55;8.70;;;;;;;0.06;79.99;97410.34;4887837;29;20048;-74
2024/01/16 02:04:39;;;;;;;11.27;7.93;;;;;;;0.17;79.21;97412.41;4882732;29;20021;-72
2024/01/16 02:07:05;;;;;;;10.82;8.13;;;;;;;0.19;79.70;97413.84;4907306;29;20119;-73
2024/01/16 02:09:31;;;;;;;9.95;8.55;;;;;;;-0.03;79.86;97396.47;4898521;29;20020;-73
2024/01/16 02:11:57;;;;;;;9.88;8.18;;;;;;;0.06;78.99;97427.06;4897001;29;20461;-73
2024/01/16 02:14:22;;;;;;;10.63;7.47;;;;;;;0.03;79.61;97421.31;4904239;29;20103;-73
2024/01/16 02:16:48;;;;;;;11.48;8.45;;;;;;;0.08;79.72;97426.84;4897515;29;20116;-73
2024/01/16 02:19:14;;;;;;;12.73;7.70;;;;;;;0.02;79.01;97427.66;4901603;29;20117;-74
2024/01/16 02:21:44;;;;;;;10.13;7.25;;;;;;;0.06;78.78;97436.81;4900181;29;20084;-74
2024/01/16 02:24:11;;;;;;;11.52;7.85;;;;;;;0.02;79.99;97435.59;4898355;29;20489;-73
2024/01/16 02:26:36;;;;;;;10.43;8.25;;;;;;;0.10;79.74;97448.63;4885006;29;20032;-73
2024/01/16 02:29:04;;;;;;;12.15;7.88;;;;;;;-0.02;79.32;97437.78;4902842;29;20045;-72
2024/01/16 02:31:30;;;;;;;10.70;8.55;;;;;;;-0.06;79.04;97433.91;4888563;29;20024;-72
2024/01/16 02:33:55;;;;;;;9.35;7.82;;;;;;;-0.04;78.65;97432.72;4904770;29;20065;-73
2024/01/16 02:36:21;;;;;;;12.45;8.05;;;;;;;-0.05;78.70;97430.28;4888619;29;20481;-72
2024/01/16 02:38:47;;;;;;;13.05;7.82;;;;;;;0.06;78.70;97444.75;4865642;29;20040;-72
2024/01/16 02:41:16;;;;;;;13.80;7.65;;;;;;;0.00;79.52;97443.72;4904125;29;20037;-72
2024/01/16 02:43:41;;;;;;;11.10;7.93;;;;;;;-0.10;79.14;97422.09;4902853;29;20052;-72
2024/01/16 02:46:08;;;;;;;9.95;7.88;;;;;;;0.07;78.20;97446.41;4906107;29;20059;-72
2024/01/16 02:48:34;;;;;;;10.23;7.55;;;;;;;0.04;79.04;97446.78;4908383;29;20052;-72
2024/01/16 02:51:00;;;;;;;10.30;7.93;;;;;;;-0.10;78.97;97428.22;4900068;29;20504;-72
2024/01/16 02:53:26;;;;;;;10.32;7.85;;;;;;;0.05;78.71;97441.28;4906216;29;20028;-73
2024/01/16 02:55:52;;;;;;;11.38;7.63;;;;;;;-0.10;78.79;97428.22;4892204;29;20032;-72
2024/01/16 02:58:18;;;;;;;9.57;7.68;;;;;;;-0.11;78.53;97439.78;4887721;29;20089;-73
2024/01/16 03:00:43;;;;;;;10.60;7.80;;;;;;;0.04;78.32;97465.31;4908715;29;20028;-73
2024/01/16 03:03:09;;;;;;;13.40;8.20;;;;;;;0.03;78.36;97442.50;4905779;29;20045;-73
2024/01/16 03:05:34;;;;;;;10.48;7.90;;;;;;;0.09;77.80;97462.91;4896522;29;20164;-73
2024/01/16 03:08:00;;;;;;;10.68;7.60;;;;;;;0.12;77.60;97462.50;4919669;29;20040;-72
2024/01/16 03:10:26;;;;;;;9.50;7.72;;;;;;;-0.03;77.85;97434.34;4910697;29;20396;-72
2024/01/16 03:12:51;;;;;;;10.50;7.20;;;;;;;0.08;78.08;97466.53;4903600;29;20552;-72
2024/01/16 03:15:17;;;;;;;15.18;7.50;;;;;;;0.11;77.48;97460.88;4863647;29;20164;-72
2024/01/16 03:17:42;;;;;;;8.63;7.72;;;;;;;0.05;77.86;97461.66;4895451;29;20484;-72
2024/01/16 03:20:08;;;;;;;7.68;6.57;;;;;;;0.12;78.05;97478.41;4901920;29;20119;-72
2024/01/16 03:22:34;;;;;;;10.05;7.00;;;;;;;0.05;77.59;97466.97;4903851;29;20519;-72
2024/01/16 03:25:00;;;;;;;11.85;7.20;;;;;;;0.14;77.46;97460.47;4899153;29;20032;-73
2024/01/16 03:27:25;;;;;;;8.15;6.90;;;;;;;0.15;77.16;97462.09;4901684;29;20041;-72
2024/01/16 03:29:51;;;;;;;10.07;7.00;;;;;;;0.17;77.15;97462.72;4899253;29;20039;-72
2024/01/16 03:32:17;;;;;;;9.93;6.57;;;;;;;0.17;76.85;97470.66;4901391;29;20037;-71
2024/01/16 03:34:42;;;;;;;11.25;7.18;;;;;;;0.15;77.79;97465.56;4901810;29;20029;-71
2024/01/16 03:37:08;;;;;;;11.98;7.32;;;;;;;0.11;77.16;97466.16;4905630;29;20036;-71
2024/01/16 03:39:33;;;;;;;12.80;7.28;;;;;;;0.12;76.84;97462.50;4911090;29;20031;-71
2024/01/16 03:41:59;;;;;;;11.95;7.53;;;;;;;0.08;77.10;97455.97;4894728;29;20044;-71
2024/01/16 03:44:24;;;;;;;11.10;7.10;;;;;;;0.14;76.70;97474.50;4902868;29;20028;-71
2024/01/16 03:46:50;;;;;;;10.70;7.25;;;;;;;0.12;77.64;97483.69;4903988;29;20541;-71
2024/01/16 03:49:15;;;;;;;11.75;8.07;;;;;;;0.16;77.48;97476.97;4891625;29;20028;-73
2024/01/16 03:51:45;;;;;;;11.85;8.82;;;;;;;0.15;77.44;97480.63;4898626;29;20051;-72
2024/01/16 03:54:14;;;;;;;11.20;8.63;;;;;;;0.20;77.88;97480.88;4899922;29;20072;-74
2024/01/16 03:56:40;;;;;;;12.98;9.35;;;;;;;0.10;77.16;97469.81;4898610;29;20036;-73
2024/01/16 03:59:05;;;;;;;14.55;9.93;;;;;;;0.18;77.66;97488.19;4898526;29;20041;-74
2024/01/16 04:01:36;;;;;;;12.55;9.77;;;;;;;0.13;77.32;97485.31;4900027;29;20373;-74
2024/01/16 04:04:02;;;;;;;13.32;9.82;;;;;;;0.21;77.15;97493.09;4906159;29;20122;-73
2024/01/16 04:06:29;;;;;;;12.88;8.95;;;;;;;0.19;77.33;97497.78;4898609;29;20152;-73
2024/01/16 04:08:54;;;;;;;16.85;9.25;;;;;;;0.15;77.52;97499.97;4901606;29;20500;-73
2024/01/16 04:11:19;;;;;;;14.20;9.70;;;;;;;0.14;77.11;97505.47;4893372;29;20520;-72
2024/01/16 04:13:45;;;;;;;11.05;9.15;;;;;;;0.16;78.08;97508.75;4867296;29;20033;-72
2024/01/16 04:16:12;;;;;;;12.23;8.93;;;;;;;0.09;77.95;97505.25;4899261;29;20367;-73
2024/01/16 04:18:40;;;;;;;12.35;9.30;;;;;;;-0.03;77.76;97482.00;4914911;29;20569;-74
2024/01/16 04:21:09;;;;;;;13.18;10.35;;;;;;;0.04;78.11;97483.84;4899966;29;20033;-72
2024/01/16 04:23:34;;;;;;;13.95;10.52;;;;;;;0.04;77.49;97491.78;4894810;29;20087;-72
2024/01/16 04:26:00;;;;;;;13.13;10.30;;;;;;;-0.02;77.58;97494.19;4898228;29;20063;-72
2024/01/16 04:28:26;;;;;;;13.50;9.93;;;;;;;0.07;77.73;97499.34;4902139;29;20084;-71
2024/01/16 04:30:51;;;;;;;13.32;9.55;;;;;;;0.04;78.24;97492.59;4874878;29;20041;-71
2024/01/16 04:33:17;;;;;;;13.07;9.55;;;;;;;-0.03;78.39;97492.56;4895467;29;20045;-72
2024/01/16 04:35:42;;;;;;;11.57;9.95;;;;;;;-0.02;77.54;97488.91;4898921;29;20033;-72
2024/01/16 04:38:08;;;;;;;13.13;10.27;;;;;;;-0.11;78.19;97474.19;4903305;29;20032;-72
2024/01/16 04:40:34;;;;;;;13.77;10.60;;;;;;;-0.06;77.33;97482.38;4876435;29;20028;-72
2024/01/16 04:43:00;;;;;;;12.38;9.10;;;;;;;-0.15;77.83;97474.78;4912021;29;20481;-72
2024/01/16 04:45:25;;;;;;;12.25;10.23;;;;;;;-0.03;77.42;97492.56;4895086;29;20032;-72
2024/01/16 04:47:51;;;;;;;15.07;10.68;;;;;;;-0.08;78.00;97484.41;4899616;29;20037;-71
2024/01/16 04:50:16;;;;;;;13.27;9.63;;;;;;;0.00;77.90;97486.88;4905700;29;20060;-72
2024/01/16 04:52:43;;;;;;;15.13;10.30;;;;;;;-0.18;78.04;97470.69;4909588;29;20128;-73
2024/01/16 04:55:08;;;;;;;14.63;9.57;;;;;;;-0.08;77.49;97473.81;4920877;29;20039;-72
2024/01/16 04:57:34;;;;;;;14.15;10.23;;;;;;;-0.09;78.21;97492.50;4906521;29;20037;-72
2024/01/16 04:59:59;;;;;;;14.60;10.35;;;;;;;-0.10;77.38;97481.13;4897710;29;20115;-75
2024/01/16 05:02:24;;;;;;;17.05;9.70;;;;;;;-0.08;77.87;97483.56;4906307;29;20084;-71
2024/01/16 05:04:51;;;;;;;14.80;11.02;;;;;;;-0.11;77.48;97499.81;4896964;29;20017;-72
2024/01/16 05:07:20;;;;;;;14.20;10.50;;;;;;;-0.13;77.19;97486.81;4890517;29;20033;-72
2024/01/16 05:09:46;;;;;;;14.45;10.75;;;;;;;-0.16;78.29;97489.81;4902542;29;20443;-70
2024/01/16 05:12:12;;;;;;;12.82;10.38;;;;;;;-0.21;78.24;97479.00;4899550;29;20081;-72
2024/01/16 05:14:37;;;;;;;14.07;10.13;;;;;;;-0.13;77.58;97486.81;4906394;29;20392;-72
2024/01/16 05:17:03;;;;;;;14.30;10.35;;;;;;;-0.17;77.60;97490.84;4904673;29;20488;-71
2024/01/16 05:19:28;;;;;;;14.13;10.48;;;;;;;-0.21;78.42;97488.78;4919286;23;20412;-70
2024/01/16 05:21:54;;;;;;;13.98;11.20;;;;;;;-0.28;78.52;97478.16;4924415;29;20514;-69
2024/01/16 05:24:19;;;;;;;14.25;11.23;;;;;;;-0.20;77.88;97485.94;4928863;29;20066;-69
2024/01/16 05:26:44;;;;;;;15.68;10.93;;;;;;;-0.23;78.53;97475.75;4928331;29;20049;-72
2024/01/16 05:29:10;;;;;;;30.92;24.75;;;;;;;-0.15;77.51;97477.41;4926559;29;20054;-71
2024/01/16 05:31:42;;;;;;;108.40;74.97;;;;;;;-0.32;78.28;97462.84;4923072;29;20047;-70
2024/01/16 05:34:08;;;;;;;70.43;46.30;;;;;;;-0.20;77.87;97485.13;4912199;29;20047;-70
2024/01/16 05:36:34;;;;;;;103.05;72.22;;;;;;;-0.21;78.44;97494.88;4925316;29;20027;-70
2024/01/16 05:38:59;;;;;;;213.13;135.40;;;;;;;-0.21;78.82;97499.38;4923823;29;20055;-70
2024/01/16 05:41:25;;;;;;;467.02;306.20;;;;;;;-0.17;78.48;97504.09;4928851;29;20431;-70
2024/01/16 05:43:50;;;;;;;33.33;22.35;;;;;;;-0.13;78.48;97502.69;4922914;29;20055;-70
2024/01/16 05:46:15;;;;;;;17.05;14.27;;;;;;;-0.15;78.28;97507.34;4927251;29;20039;-70
2024/01/16 05:48:41;;;;;;;18.33;12.90;;;;;;;-0.27;78.55;97493.03;4908228;29;20465;-69
2024/01/16 05:51:06;;;;;;;21.52;19.30;;;;;;;-0.26;78.23;97497.31;4923425;29;20027;-70
2024/01/16 05:53:31;;;;;;;16.73;13.65;;;;;;;-0.22;78.82;97503.03;4915383;29;20522;-70
2024/01/16 05:55:57;;;;;;;17.80;13.35;;;;;;;-0.26;79.25;97507.91;4918134;29;20072;-68
2024/01/16 05:58:22;;;;;;;16.13;14.13;;;;;;;-0.22;78.99;97508.31;4927046;29;20126;-70
2024/01/16 06:00:48;;;;;;;16.58;13.55;;;;;;;-0.21;78.12;97505.47;4921454;29;20028;-70
2024/01/16 06:03:13;;;;;;;19.05;13.43;;;;;;;-0.29;78.63;97497.69;4921540;29;20044;-71
2024/01/16 06:05:38;;;;;;;18.65;13.40;;;;;;;-0.26;78.76;97502.59;4915562;29;20036;-70
2024/01/16 06:08:04;;;;;;;18.55;13.60;;;;;;;-0.27;78.55;97492.19;4910924;29;20044;-71
2024/01/16 06:10:29;;;;;;;16.02;12.77;;;;;;;-0.24;78.29;97495.28;4930843;29;20032;-71
2024/01/16 06:12:55;;;;;;;16.95;13.35;;;;;;;-0.32;79.49;97503.34;4912644;29;20051;-71
2024/01/16 06:15:20;;;;;;;17.35;13.23;;;;;;;-0.34;78.55;97500.09;4931308;29;20027;-70
2024/01/16 06:17:46;;;;;;;16.98;13.27;;;;;;;-0.39;79.25;97491.09;4922887;29;20035;-70
2024/01/16 06:20:11;;;;;;;15.85;11.43;;;;;;;-0.33;79.43;97500.91;4927590;29;20038;-70
2024/01/16 06:22:36;;;;;;;17.10;13.15;;;;;;;-0.26;79.35;97507.06;4917847;29;20392;-71
2024/01/16 06:25:02;;;;;;;16.15;12.68;;;;;;;-0.33;78.73;97485.88;4924724;29;20051;-70
2024/01/16 06:27:27;;;;;;;17.23;13.93;;;;;;;-0.14;78.39;97497.59;4914686;29;20047;-70
2024/01/16 06:29:53;;;;;;;19.15;14.30;;;;;;;-0.17;78.62;97504.09;4923971;29;20035;-70
2024/01/16 06:32:18;;;;;;;18.58;12.82;;;;;;;-0.11;79.10;97505.94;4925872;29;20047;-70
2024/01/16 06:34:44;;;;;;;18.48;14.57;;;;;;;-0.10;78.71;97512.88;4921702;29;20086;-70
2024/01/16 06:37:10;;;;;;;20.50;14.13;;;;;;;-0.18;78.59;97499.78;4922622;29;20039;-70
2024/01/16 06:39:36;;;;;;;18.00;13.90;;;;;;;-0.07;79.06;97512.47;4919545;29;20036;-69
2024/01/16 06:42:01;;;;;;;15.38;13.68;;;;;;;-0.03;78.28;97508.44;4917827;29;20040;-70
2024/01/16 06:44:27;;;;;;;17.40;13.90;;;;;;;-0.10;78.81;97502.28;4932175;29;20031;-71
2024/01/16 06:46:52;;;;;;;18.95;15.15;;;;;;;-0.06;78.72;97506.19;4919193;29;20087;-71
2024/01/16 06:49:17;;;;;;;21.42;14.75;;;;;;;-0.12;78.26;97501.66;4927724;29;20059;-70
2024/01/16 06:51:43;;;;;;;17.70;14.27;;;;;;;-0.14;78.71;97513.47;4914250;29;20059;-70
2024/01/16 06:54:08;;;;;;;18.92;14.05;;;;;;;-0.21;79.42;97510.75;4927598;29;20111;-70
2024/01/16 06:56:33;;;;;;;19.75;13.32;;;;;;;-0.33;79.46;97511.50;4919877;29;20039;-70
2024/01/16 06:58:59;;;;;;;20.05;14.80;;;;;;;-0.36;79.05;97518.00;4929679;29;20030;-70
2024/01/16 07:01:24;;;;;;;17.80;14.02;;;;;;;-0.40;79.20;97514.09;4919888;29;20039;-71
2024/01/16 07:03:50;;;;;;;17.05;14.63;;;;;;;-0.49;79.38;97502.00;4927415;29;20040;-70
2024/01/16 07:06:15;;;;;;;21.17;14.32;;;;;;;-0.46;79.37;97512.22;4925330;29;20400;-69
2024/01/16 07:08:40;;;;;;;17.60;14.13;;;;;;;-0.51;79.00;97517.25;4925946;29;20108;-70
2024/01/16 07:11:08;;;;;;;16.00;13.82;;;;;;;-0.45;79.14;97524.44;4926642;29;20527;-70
2024/01/16 07:13:34;;;;;;;19.55;14.00;;;;;;;-0.42;78.77;97517.94;4922856;29;20053;-70
2024/01/16 07:15:59;;;;;;;19.13;12.52;;;;;;;-0.46;78.89;97525.44;4924325;29;20493;-71
2024/01/16 07:18:26;;;;;;;20.15;13.00;;;;;;;-0.49;79.88;97511.78;4935427;29;20032;-71
2024/01/16 07:20:55;;;;;;;17.60;14.18;;;;;;;-0.51;79.72;97509.31;4921401;29;20461;-71
2024/01/16 07:23:20;;;;;;;17.52;15.10;;;;;;;-0.49;79.00;97522.38;4932878;29;20023;-71
2024/01/16 07:25:45;;;;;;;24.00;14.80;;;;;;;-0.52;79.50;97528.84;4920183;29;20572;-71
2024/01/16 07:28:11;;;;;;;21.25;15.18;;;;;;;-0.55;79.64;97518.66;4930172;29;20031;-71
2024/01/16 07:30:36;;;;;;;19.73;14.50;;;;;;;-0.44;79.28;97536.63;4906987;29;20511;-70
2024/01/16 07:33:03;;;;;;;18.77;14.23;;;;;;;-0.49;80.15;97532.94;4930718;29;20518;-70
2024/01/16 07:35:28;;;;;;;52.95;33.38;;;;;;;-0.38;78.84;97545.63;4912406;29;20048;-71
2024/01/16 07:37:53;;;;;;;19.60;14.63;;;;;;;-0.43;79.67;97529.53;4911252;29;20024;-70
2024/01/16 07:40:19;;;;;;;17.70;13.80;;;;;;;-0.28;79.13;97546.94;4902228;29;20055;-70
2024/01/16 07:42:44;;;;;;;18.45;14.25;;;;;;;-0.21;79.03;97545.16;4922238;29;20039;-70
2024/01/16 07:45:10;;;;;;;23.92;15.32;;;;;;;-0.23;78.89;97539.22;4931547;29;20119;-71
2024/01/16 07:47:36;;;;;;;18.30;15.43;;;;;;;-0.22;78.80;97540.06;4923182;29;20051;-70
2024/01/16 07:50:01;;;;;;;18.63;13.98;;;;;;;-0.09;79.45;97551.53;4921508;29;20385;-70
2024/01/16 07:52:30;;;;;;;22.17;14.15;;;;;;;-0.08;78.86;97557.66;4943306;29;20395;-70
2024/01/16 07:54:55;;;;;;;19.02;15.38;;;;;;;-0.09;78.45;97556.00;4921284;29;20044;-71
2024/01/16 07:57:20;;;;;;;20.38;13.95;;;;;;;-0.03;78.73;97574.59;4932889;29;20531;-70
2024/01/16 07:59:46;;;;;;;22.75;16.15;;;;;;;-0.07;79.32;97570.69;4917975;29;20041;-70
2024/01/16 08:02:11;;;;;;;18.90;14.15;;;;;;;-0.13;78.86;97574.13;4927819;29;20146;-70
2024/01/16 08:04:37;;;;;;;18.42;14.27;;;;;;;-0.24;78.69;97563.25;4926144;29;20069;-70
2024/01/16 08:07:02;;;;;;;15.73;13.13;;;;;;;-0.11;78.67;97566.81;4928992;29;20028;-70
2024/01/16 08:09:28;;;;;;;20.60;14.27;;;;;;;-0.23;79.08;97565.69;4925212;29;20071;-71
2024/01/16 08:11:53;;;;;;;19.42;14.32;;;;;;;-0.15;78.88;97564.75;4927824;29;20066;-70
2024/01/16 08:14:18;;;;;;;20.70;14.85;;;;;;;-0.10;77.95;97562.34;4924511;29;20052;-70
2024/01/16 08:16:44;;;;;;;20.25;14.30;;;;;;;-0.16;78.70;97558.63;4924832;29;20024;-71
2024/01/16 08:19:09;;;;;;;21.52;14.38;;;;;;;-0.08;78.18;97569.06;4914287;29;20452;-71
2024/01/16 08:21:35;;;;;;;19.13;14.48;;;;;;;-0.33;77.61;97548.53;4920220;29;20368;-70
2024/01/16 08:24:00;;;;;;;19.67;15.38;;;;;;;-0.19;77.87;97561.63;4917202;29;20570;-71
2024/01/16 08:26:26;;;;;;;23.60;16.55;;;;;;;-0.18;77.93;97558.00;4927528;29;20027;-71
2024/01/16 08:28:51;;;;;;;20.98;17.80;;;;;;;-0.08;77.93;97578.84;4915669;29;20039;-71
2024/01/16 08:31:18;;;;;;;28.92;22.17;;;;;;;-0.07;78.00;97575.19;4919272;29;20039;-71
2024/01/16 08:33:43;;;;;;;25.27;20.77;;;;;;;0.00;77.03;97574.19;4913928;29;20111;-71
2024/01/16 08:36:09;;;;;;;24.05;18.00;;;;;;;-0.04;77.83;97569.50;4929033;29;20103;-70
2024/01/16 08:38:34;;;;;;;20.95;15.30;;;;;;;0.05;76.69;97572.81;4919462;29;20044;-71
2024/01/16 08:41:00;;;;;;;17.95;15.27;;;;;;;0.10;76.65;97576.50;4917771;29;20052;-71
2024/01/16 08:43:25;;;;;;;19.27;15.57;;;;;;;0.03;76.60;97561.59;4919567;29;20039;-71
2024/01/16 08:45:50;;;;;;;18.33;14.85;;;;;;;0.09;76.23;97579.34;4928987;29;20027;-71
2024/01/16 08:48:16;;;;;;;22.15;15.73;;;;;;;0.13;76.29;97576.13;4918640;29;20036;-71
2024/01/16 08:50:42;;;;;;;21.92;15.98;;;;;;;0.13;76.00;97562.06;4924810;29;20039;-70
2024/01/16 08:53:07;;;;;;;23.00;15.63;;;;;;;0.16;76.53;97566.97;4913426;29;20085;-70
2024/01/16 08:55:33;;;;;;;18.20;15.55;;;;;;;0.30;75.94;97580.13;4921310;29;20031;-70
2024/01/16 08:57:58;;;;;;;18.30;14.77;;;;;;;0.38;76.05;97584.41;4908476;29;20115;-70
2024/01/16 09:00:24;;;;;;;22.55;16.15;;;;;;;0.42;76.60;97585.69;4918747;29;20059;-70
2024/01/16 09:02:49;;;;;;;19.65;16.25;;;;;;;0.44;76.41;97591.59;4922275;29;20112;-71
2024/01/16 09:05:15;;;;;;;20.67;15.38;;;;;;;0.48;76.14;97598.13;4928368;29;20483;-71
2024/01/16 09:07:41;;;;;;;19.83;14.68;;;;;;;0.56;76.53;97600.63;4918410;29;20060;-70
2024/01/16 09:10:07;;;;;;;20.42;14.40;;;;;;;0.55;75.79;97591.03;4927324;29;20051;-71
2024/01/16 09:12:33;;;;;;;19.85;15.25;;;;;;;0.69;75.36;97592.72;4903850;29;20041;-71
2024/01/16 09:14:58;;;;;;;18.65;14.43;;;;;;;0.79;75.63;97598.50;4926950;29;20511;-71
2024/01/16 09:17:25;;;;;;;26.17;19.40;;;;;;;0.76;75.39;97596.22;4902007;29;20063;-70
2024/01/16 09:19:51;;;;;;;22.10;17.63;;;;;;;0.78;75.30;97591.53;4910241;29;20434;-71
2024/01/16 09:22:17;;;;;;;25.33;17.00;;;;;;;0.89;75.85;97606.88;4919292;29;20111;-71
2024/01/16 09:24:42;;;;;;;22.25;15.10;;;;;;;0.89;74.82;97609.53;4941392;29;20030;-70
2024/01/16 09:27:09;;;;;;;18.88;14.85;;;;;;;0.76;75.12;97609.47;4917938;29;20067;-70
2024/01/16 09:29:35;;;;;;;17.27;13.93;;;;;;;0.77;75.13;97611.09;4925052;29;20442;-71
2024/01/16 09:32:00;;;;;;;19.13;13.85;;;;;;;0.73;75.24;97593.16;4924467;29;20110;-73
2024/01/16 09:34:26;;;;;;;16.95;13.88;;;;;;;0.86;75.31;97602.00;4925184;29;20024;-71
2024/01/16 09:36:51;;;;;;;19.17;14.35;;;;;;;0.79;74.90;97582.59;4927449;29;20123;-73
2024/01/16 09:39:16;;;;;;;18.30;13.82;;;;;;;0.84;75.48;97600.56;4930523;29;20028;-71
2024/01/16 09:41:42;;;;;;;20.95;14.75;;;;;;;0.87;74.53;97611.56;4929070;29;20043;-72
2024/01/16 09:44:08;;;;;;;18.58;14.02;;;;;;;0.79;74.73;97593.19;4913236;29;20123;-72
2024/01/16 09:46:34;;;;;;;18.05;14.20;;;;;;;0.90;74.22;97602.41;4895462;29;20134;-72
2024/01/16 09:49:02;;;;;;;18.67;14.20;;;;;;;0.95;74.26;97594.69;4914869;29;20024;-70
2024/01/16 09:51:27;;;;;;;16.65;13.75;;;;;;;0.89;73.85;97604.22;4924479;29;20067;-71
2024/01/16 09:53:53;;;;;;;19.55;14.93;;;;;;;0.93;74.94;97605.47;4925733;29;20111;-70
2024/01/16 09:56:22;;;;;;;19.50;14.35;;;;;;;0.93;74.38;97594.88;4934275;29;20511;-70
2024/01/16 09:58:48;;;;;;;18.02;14.60;;;;;;;0.93;73.94;97605.47;4927029;29;20023;-70
2024/01/16 10:01:15;;;;;;;18.05;14.63;;;;;;;0.83;74.50;97604.19;4917955;29;20135;-71
2024/01/16 10:03:45;;;;;;;17.80;13.98;;;;;;;0.84;73.94;97596.03;4904246;29;20480;-72
2024/01/16 10:06:11;;;;;;;18.90;14.93;;;;;;;0.74;74.12;97582.38;4912077;29;20040;-70
2024/01/16 10:08:36;;;;;;;19.40;15.10;;;;;;;0.71;74.43;97580.09;4896098;29;20028;-70
2024/01/16 10:11:02;;;;;;;18.30;14.13;;;;;;;0.72;74.46;97597.66;4904271;29;20036;-71
2024/01/16 10:13:29;;;;;;;21.08;14.90;;;;;;;0.60;75.18;97583.31;4912618;29;20038;-70
2024/01/16 10:15:55;;;;;;;19.92;15.07;;;;;;;0.63;75.29;97609.44;4911666;29;20584;-70
2024/01/16 10:18:25;;;;;;;21.23;16.08;;;;;;;0.65;74.50;97607.41;4911173;29;20020;-71
2024/01/16 10:20:52;;;;;;;25.75;16.55;;;;;;;0.63;74.85;97589.03;4911598;29;20389;-70
2024/01/16 10:23:32;;;;;;;22.17;16.08;;;;;;;0.80;74.71;97600.13;4913254;29;20036;-71
2024/01/16 10:26:07;;;;;;;27.92;18.40;;;;;;;0.87;74.20;97605.44;4908870;29;20035;-72
2024/01/16 10:28:34;;;;;;;19.90;14.55;;;;;;;0.79;73.96;97601.16;4919390;29;20036;-71
2024/01/16 10:31:03;;;;;;;20.75;14.85;;;;;;;0.77;74.99;97605.00;4915814;29;20473;-70
2024/01/16 10:33:28;;;;;;;18.25;15.07;;;;;;;0.80;74.80;97580.75;4904233;29;20051;-70
2024/01/16 10:36:09;;;;;;;19.08;14.57;;;;;;;0.94;74.80;97607.09;4920298;29;20028;-70
2024/01/16 10:38:37;;;;;;;19.60;13.57;;;;;;;0.87;74.25;97600.13;4904765;29;20020;-71
2024/01/16 10:41:18;;;;;;;19.58;14.20;;;;;;;0.86;73.96;97577.31;4920296;29;20034;-70
2024/01/16 10:43:44;;;;;;;19.45;14.27;;;;;;;1.02;73.78;97604.28;4906288;29;20111;-70
2024/01/16 10:46:16;;;;;;;17.40;13.68;;;;;;;1.06;73.24;97588.78;4898235;29;20180;-71
2024/01/16 10:48:58;;;;;;;18.63;13.93;;;;;;;1.02;72.99;97588.38;4907015;29;20048;-71
2024/01/16 10:51:26;;;;;;;20.98;13.93;;;;;;;1.14;73.83;97581.50;4920367;29;21313;-70
2024/01/16 10:53:58;;;;;;;17.95;13.68;;;;;;;1.21;72.63;97582.28;4904882;29;20047;-70
2024/01/16 10:56:24;;;;;;;18.95;14.77;;;;;;;1.24;72.74;97549.25;4911508;29;20044;-69
2024/01/16 10:59:04;;;;;;;33.20;22.63;;;;;;;1.56;73.24;97571.56;4920041;29;20016;-70
2024/01/16 11:01:30;;;;;;;17.75;14.40;;;;;;;1.59;71.93;97579.13;4919924;29;20103;-70
2024/01/16 11:03:57;;;;;;;20.25;12.90;;;;;;;1.55;72.35;97577.88;4911027;29;20027;-70
2024/01/16 11:06:23;;;;;;;16.02;12.35;;;;;;;1.59;71.79;97574.59;4910720;29;20449;-70
2024/01/16 11:08:49;;;;;;;19.02;12.93;;;;;;;1.54;71.95;97555.03;4910891;29;20492;-70
2024/01/16 11:11:15;;;;;;;17.98;11.82;;;;;;;1.48;71.55;97571.75;4894602;29;20122;-71
2024/01/16 11:13:44;;;;;;;19.55;13.57;;;;;;;1.56;71.63;97580.34;4904621;29;20040;-70
2024/01/16 11:16:10;;;;;;;17.73;12.88;;;;;;;1.63;71.84;97580.34;4915962;29;20072;-71
2024/01/16 11:18:36;;;;;;;16.60;12.20;;;;;;;1.52;72.19;97575.66;4926808;29;20107;-71
2024/01/16 11:21:05;;;;;;;18.40;11.57;;;;;;;1.39;71.81;97585.22;4919922;29;20462;-71